Time;durP1;ratioP1;P1;durP2;ratioP2;P2;SDS_P1;SDS_P2;PMS_P1;PMS_P2;Temp;Humidity;BMP_temperature;BMP_pressure;BME280_temperature;BME280_humidity;BME280_pressure;Samples;Min_cycle;Max_cycle;Signal;HPM_P1;HPM_P2
2023/07/01 00:02:04;;;;;;;9.18;4.40;;;16.30;99.90;;;;;;5012948;28;20037;-67
2023/07/01 00:04:29;;;;;;;7.18;4.18;;;16.20;99.90;;;;;;5012636;28;20085;-67
2023/07/01 00:06:55;;;;;;;11.30;5.13;;;16.30;99.90;;;;;;4994198;28;20073;-67
2023/07/01 00:09:21;;;;;;;11.00;4.90;;;16.30;99.90;;;;;;4995135;28;20081;-67
2023/07/01 00:11:47;;;;;;;12.77;5.28;;;16.20;99.90;;;;;;4995104;28;20042;-67
2023/07/01 00:14:13;;;;;;;9.60;4.65;;;16.20;99.90;;;;;;4994019;28;20050;-67
2023/07/01 00:16:39;;;;;;;7.25;4.18;;;16.10;99.90;;;;;;4995099;28;20427;-68
2023/07/01 00:19:07;;;;;;;11.90;4.60;;;16.00;99.90;;;;;;5012806;28;20049;-67
2023/07/01 00:21:33;;;;;;;10.57;4.78;;;16.00;99.90;;;;;;4994284;28;20140;-67
2023/07/01 00:23:58;;;;;;;9.73;4.10;;;15.90;99.90;;;;;;4994427;28;20141;-67
2023/07/01 00:26:25;;;;;;;11.77;4.60;;;15.90;99.90;;;;;;4994674;28;20092;-67
2023/07/01 00:28:52;;;;;;;8.85;4.22;;;15.80;99.90;;;;;;4993897;28;20046;-67
2023/07/01 00:31:18;;;;;;;8.88;3.97;;;15.80;99.90;;;;;;5012629;28;20046;-67
2023/07/01 00:33:44;;;;;;;8.40;4.32;;;15.70;99.90;;;;;;5012204;28;20450;-67
2023/07/01 00:36:09;;;;;;;9.68;4.40;;;15.70;99.90;;;;;;5011589;28;20049;-67
2023/07/01 00:38:35;;;;;;;11.32;4.22;;;15.60;99.90;;;;;;5012532;28;20045;-67
2023/07/01 00:41:04;;;;;;;14.43;4.38;;;15.60;99.90;;;;;;4994595;28;20096;-67
2023/07/01 00:43:30;;;;;;;10.95;4.55;;;15.60;99.90;;;;;;5012251;28;20074;-67
2023/07/01 00:45:55;;;;;;;8.18;4.70;;;15.60;99.90;;;;;;4994692;28;20076;-67
2023/07/01 00:48:26;;;;;;;9.40;4.40;;;15.60;99.90;;;;;;5011457;28;20034;-67
2023/07/01 00:50:53;;;;;;;7.70;4.85;;;15.60;99.90;;;;;;4978247;28;20040;-67
2023/07/01 00:53:19;;;;;;;13.05;4.20;;;15.60;99.90;;;;;;4994391;28;20050;-67
2023/07/01 00:55:45;;;;;;;9.55;4.72;;;15.70;99.90;;;;;;4993614;28;20503;-67
2023/07/01 00:58:11;;;;;;;11.48;4.18;;;15.70;99.90;;;;;;4994789;28;20509;-67
2023/07/01 01:00:37;;;;;;;8.73;4.35;;;15.70;99.90;;;;;;5011983;28;20042;-67
2023/07/01 01:03:06;;;;;;;13.57;4.97;;;15.70;99.90;;;;;;4993543;28;20093;-67
2023/07/01 01:05:45;;;;;;;12.63;4.82;;;15.60;99.90;;;;;;4994700;28;20513;-67
2023/07/01 01:08:20;;;;;;;7.60;4.82;;;15.60;99.90;;;;;;5012223;28;20077;-68
2023/07/01 01:10:47;;;;;;;16.73;5.68;;;15.60;99.90;;;;;;4993631;28;20038;-67
2023/07/01 01:13:16;;;;;;;12.93;5.55;;;15.60;99.90;;;;;;4994589;28;20041;-67
2023/07/01 01:15:42;;;;;;;13.30;4.97;;;15.60;99.90;;;;;;4994104;28;20064;-68
2023/07/01 01:18:09;;;;;;;8.07;4.95;;;15.60;99.90;;;;;;4993809;28;20120;-67
2023/07/01 01:20:38;;;;;;;10.68;6.00;;;15.50;99.90;;;;;;4994047;28;20042;-67
2023/07/01 01:23:13;;;;;;;8.88;5.38;;;15.60;99.90;;;;;;5011579;28;20499;-68
2023/07/01 01:25:57;;;;;;;12.95;6.72;;;15.50;99.90;;;;;;4994154;28;20120;-68
2023/07/01 01:28:23;;;;;;;10.13;6.22;;;15.50;99.90;;;;;;4994398;28;20121;-68
2023/07/01 01:30:51;;;;;;;13.63;5.93;;;15.50;99.90;;;;;;4976998;28;20057;-68
2023/07/01 01:33:17;;;;;;;10.48;6.32;;;15.60;99.90;;;;;;4993805;28;20041;-68
2023/07/01 01:35:43;;;;;;;9.10;6.25;;;15.50;99.90;;;;;;5013502;28;20048;-68
2023/07/01 01:38:23;;;;;;;10.57;6.30;;;15.50;99.90;;;;;;4997310;28;20053;-68
2023/07/01 01:40:52;;;;;;;10.27;6.18;;;15.60;99.90;;;;;;4997817;28;20049;-68
2023/07/01 01:43:26;;;;;;;9.35;7.18;;;15.60;99.90;;;;;;5015258;28;20133;-68
2023/07/01 01:45:52;;;;;;;;;;;15.60;99.90;;;;;;4997301;28;20038;-68
2023/07/01 01:48:18;;;;;;;12.65;6.47;;;15.60;99.90;;;;;;5014959;28;19929;-68
2023/07/01 01:50:48;;;;;;;9.50;6.82;;;15.60;99.90;;;;;;4997432;28;20414;-68
2023/07/01 01:53:15;;;;;;;11.00;6.43;;;15.60;99.90;;;;;;4980717;28;20492;-68
2023/07/01 01:55:41;;;;;;;10.07;6.93;;;15.60;99.90;;;;;;4997533;28;20038;-68
2023/07/01 01:58:07;;;;;;;11.13;6.93;;;15.60;99.90;;;;;;4997605;28;20045;-68
2023/07/01 02:00:34;;;;;;;10.73;7.30;;;15.60;99.90;;;;;;5014037;28;20042;-68
2023/07/01 02:03:01;;;;;;;10.38;6.22;;;15.60;99.90;;;;;;5014989;28;20439;-68
2023/07/01 02:05:27;;;;;;;10.05;6.72;;;15.60;99.90;;;;;;4997055;28;20112;-68
2023/07/01 02:07:53;;;;;;;9.10;6.65;;;15.60;99.90;;;;;;5014436;28;20038;-68
2023/07/01 02:10:21;;;;;;;9.88;6.55;;;15.60;99.90;;;;;;4981390;28;20128;-68
2023/07/01 02:12:47;;;;;;;10.40;6.10;;;15.60;99.90;;;;;;4996582;28;20048;-68
2023/07/01 02:15:13;;;;;;;10.48;6.78;;;15.60;99.90;;;;;;5014257;28;20512;-68
2023/07/01 02:17:39;;;;;;;9.82;6.65;;;15.60;99.90;;;;;;4997013;28;20050;-68
2023/07/01 02:20:05;;;;;;;10.63;6.40;;;15.50;99.90;;;;;;4996577;28;20125;-68
2023/07/01 02:22:31;;;;;;;9.95;5.95;;;15.60;99.90;;;;;;4996852;28;20041;-68
2023/07/01 02:24:56;;;;;;;9.85;6.50;;;15.60;99.90;;;;;;4996948;28;20042;-68
2023/07/01 02:27:22;;;;;;;11.07;6.90;;;15.60;99.90;;;;;;4979979;28;20038;-68
2023/07/01 02:29:48;;;;;;;10.15;6.53;;;15.50;99.90;;;;;;4980697;28;20052;-68
2023/07/01 02:32:14;;;;;;;11.05;6.10;;;15.50;99.90;;;;;;4980801;28;20128;-68
2023/07/01 02:34:39;;;;;;;10.48;6.57;;;15.50;99.90;;;;;;5013858;28;20533;-67
2023/07/01 02:37:05;;;;;;;10.88;6.20;;;15.50;99.90;;;;;;4996984;28;20046;-68
2023/07/01 02:39:31;;;;;;;10.85;6.43;;;15.50;99.90;;;;;;5014310;28;20049;-67
2023/07/01 02:41:57;;;;;;;10.07;6.18;;;15.50;99.90;;;;;;5013110;28;20046;-68
2023/07/01 02:44:22;;;;;;;11.65;6.13;;;15.60;99.90;;;;;;4996518;28;20128;-67
2023/07/01 02:46:48;;;;;;;10.27;7.32;;;15.60;99.90;;;;;;5013657;28;20081;-68
2023/07/01 02:49:14;;;;;;;12.00;7.43;;;15.60;99.90;;;;;;4996014;28;20042;-68
2023/07/01 02:51:41;;;;;;;10.88;7.53;;;15.60;99.90;;;;;;5013959;28;20121;-68
2023/07/01 02:54:07;;;;;;;10.73;8.13;;;15.60;99.90;;;;;;5014294;28;20376;-68
2023/07/01 02:56:32;;;;;;;11.32;7.25;;;15.50;99.90;;;;;;4995517;28;20038;-68
2023/07/01 02:58:58;;;;;;;12.40;7.85;;;15.60;99.90;;;;;;4980234;28;20100;-68
2023/07/01 03:01:24;;;;;;;11.68;7.97;;;15.50;99.90;;;;;;5013743;28;20033;-68
2023/07/01 03:03:50;;;;;;;12.00;7.65;;;15.60;99.90;;;;;;4995318;28;20082;-69
2023/07/01 03:06:18;;;;;;;12.70;8.02;;;15.60;99.90;;;;;;5013775;28;20038;-68
2023/07/01 03:08:44;;;;;;;11.88;8.25;;;15.50;99.90;;;;;;4979655;28;20041;-69
2023/07/01 03:11:09;;;;;;;13.07;9.25;;;15.60;99.90;;;;;;5013320;28;20037;-68
2023/07/01 03:13:37;;;;;;;11.25;7.80;;;15.60;99.90;;;;;;4995964;28;20526;-69
2023/07/01 03:16:07;;;;;;;11.75;7.93;;;15.60;99.90;;;;;;4995008;28;20123;-69
2023/07/01 03:18:33;;;;;;;14.02;8.65;;;15.50;99.90;;;;;;4996270;28;20061;-68
2023/07/01 03:21:00;;;;;;;12.82;9.88;;;15.50;99.90;;;;;;4995944;28;20052;-69
2023/07/01 03:23:30;;;;;;;12.15;8.68;;;15.50;99.90;;;;;;4978889;28;20121;-69
2023/07/01 03:25:56;;;;;;;10.23;7.65;;;15.50;99.90;;;;;;4995661;28;20034;-69
2023/07/01 03:28:21;;;;;;;12.05;8.77;;;15.50;99.90;;;;;;5013362;28;20071;-69
2023/07/01 03:30:47;;;;;;;14.18;9.75;;;15.50;99.90;;;;;;4995172;28;20050;-69
2023/07/01 03:33:15;;;;;;;13.57;8.95;;;15.50;99.90;;;;;;4995913;28;20487;-68
2023/07/01 03:35:41;;;;;;;11.50;8.38;;;15.50;99.90;;;;;;4995490;28;20044;-69
2023/07/01 03:38:07;;;;;;;14.23;10.07;;;15.50;99.90;;;;;;4995013;28;20034;-69
2023/07/01 03:40:32;;;;;;;14.75;9.90;;;15.50;99.90;;;;;;5013052;28;20038;-69
2023/07/01 03:42:58;;;;;;;12.85;8.93;;;15.50;99.90;;;;;;4979324;28;20082;-69
2023/07/01 03:45:24;;;;;;;10.80;9.10;;;15.60;99.90;;;;;;4994553;28;20050;-69
2023/07/01 03:47:49;;;;;;;13.35;9.98;;;15.50;99.90;;;;;;5013043;28;20041;-69
2023/07/01 03:50:15;;;;;;;12.85;9.82;;;15.50;99.90;;;;;;5013058;28;20042;-68
2023/07/01 03:52:42;;;;;;;12.85;10.10;;;15.60;99.90;;;;;;4994507;28;20038;-68
2023/07/01 03:55:13;;;;;;;13.98;11.60;;;15.50;99.90;;;;;;4995690;28;20052;-68
2023/07/01 03:57:39;;;;;;;15.43;10.75;;;15.50;99.90;;;;;;5012513;28;20038;-68
2023/07/01 04:00:17;;;;;;;14.55;11.65;;;15.60;99.90;;;;;;5012372;28;20038;-68
2023/07/01 04:02:51;;;;;;;14.80;11.93;;;15.50;99.90;;;;;;4994906;28;20092;-68
2023/07/01 04:05:18;;;;;;;15.00;11.37;;;15.50;99.90;;;;;;4994259;28;20045;-68
2023/07/01 04:07:45;;;;;;;17.90;12.52;;;15.50;99.90;;;;;;5012874;28;20038;-68
2023/07/01 04:10:12;;;;;;;13.95;11.82;;;15.50;99.90;;;;;;5012963;28;20084;-69
2023/07/01 04:12:39;;;;;;;15.82;13.05;;;15.50;99.90;;;;;;4978158;28;20034;-68
2023/07/01 04:15:09;;;;;;;17.45;12.70;;;15.50;99.90;;;;;;5012677;28;20112;-68
2023/07/01 04:17:47;;;;;;;19.67;13.07;;;15.50;99.90;;;;;;4995060;28;20037;-68
2023/07/01 04:20:13;;;;;;;14.45;11.90;;;15.50;99.90;;;;;;5012124;28;20080;-69
2023/07/01 04:22:42;;;;;;;14.88;13.30;;;15.50;99.90;;;;;;4995408;28;20049;-69
2023/07/01 04:25:09;;;;;;;14.93;11.15;;;15.50;99.90;;;;;;4995015;28;20104;-68
2023/07/01 04:27:35;;;;;;;15.45;11.68;;;15.50;99.90;;;;;;4994128;28;20100;-69
2023/07/01 04:30:02;;;;;;;15.82;11.73;;;15.50;99.90;;;;;;5012447;28;20045;-69
2023/07/01 04:32:28;;;;;;;14.75;11.63;;;15.50;99.90;;;;;;5012276;28;20045;-69
2023/07/01 04:34:54;;;;;;;12.80;11.15;;;15.50;99.90;;;;;;4994200;28;20387;-69
2023/07/01 04:37:20;;;;;;;13.93;11.13;;;15.50;99.90;;;;;;5012363;28;20136;-69
2023/07/01 04:39:46;;;;;;;12.15;9.73;;;15.50;99.90;;;;;;5032012;28;20093;-69
2023/07/01 04:42:12;;;;;;;12.52;10.45;;;15.50;99.90;;;;;;5013675;28;20051;-68
2023/07/01 04:44:37;;;;;;;13.35;9.90;;;15.50;99.90;;;;;;5032219;28;20052;-69
2023/07/01 04:47:03;;;;;;;15.48;10.20;;;15.50;99.90;;;;;;5031662;28;20388;-68
2023/07/01 04:49:29;;;;;;;11.18;9.63;;;15.60;99.90;;;;;;5031346;28;20037;-68
2023/07/01 04:51:56;;;;;;;11.82;9.38;;;15.60;99.90;;;;;;5032026;28;20465;-69
2023/07/01 04:54:21;;;;;;;13.27;11.05;;;15.50;99.90;;;;;;5031011;28;20056;-69
2023/07/01 04:56:47;;;;;;;13.27;11.07;;;15.60;99.90;;;;;;5008908;28;20042;-68
2023/07/01 04:59:13;;;;;;;15.65;12.13;;;15.60;99.90;;;;;;5010844;28;20053;-69
2023/07/01 05:01:38;;;;;;;13.25;10.27;;;15.70;99.90;;;;;;4993796;28;20195;-69
2023/07/01 05:04:04;;;;;;;12.32;9.35;;;15.60;99.90;;;;;;5012127;28;20052;-69
2023/07/01 05:06:31;;;;;;;14.93;10.25;;;15.70;99.90;;;;;;4994574;28;20060;-69
2023/07/01 05:08:57;;;;;;;13.95;8.95;;;15.70;99.90;;;;;;4993521;28;20070;-69
2023/07/01 05:11:24;;;;;;;14.00;9.98;;;15.70;99.90;;;;;;4997415;28;20042;-69
2023/07/01 05:13:49;;;;;;;11.15;8.30;;;15.80;99.90;;;;;;4982360;28;20112;-69
2023/07/01 05:16:15;;;;;;;9.85;7.88;;;15.90;99.90;;;;;;4997254;28;20057;-69
2023/07/01 05:18:40;;;;;;;10.35;7.00;;;16.00;99.90;;;;;;5015661;28;20038;-69
2023/07/01 05:21:06;;;;;;;8.57;6.47;;;16.10;99.90;;;;;;4998384;28;20117;-69
2023/07/01 05:23:32;;;;;;;8.57;6.13;;;16.20;99.90;;;;;;5014866;28;20720;-69
2023/07/01 05:25:58;;;;;;;8.35;6.13;;;16.20;99.90;;;;;;5015363;28;20546;-69
2023/07/01 05:28:24;;;;;;;8.77;5.78;;;16.30;99.90;;;;;;4981757;28;20045;-69
2023/07/01 05:30:50;;;;;;;8.55;5.10;;;16.40;99.90;;;;;;5014625;28;20034;-69
2023/07/01 05:33:16;;;;;;;8.38;5.22;;;16.40;99.90;;;;;;4998015;28;20479;-70
2023/07/01 05:35:41;;;;;;;7.88;5.30;;;16.40;99.90;;;;;;4997877;28;20511;-70
2023/07/01 05:38:11;;;;;;;10.18;5.50;;;16.50;99.90;;;;;;4981412;28;20045;-69
2023/07/01 05:40:37;;;;;;;6.72;5.15;;;16.50;99.90;;;;;;5015697;28;20048;-69
2023/07/01 05:43:03;;;;;;;7.13;4.63;;;16.50;99.90;;;;;;4997676;28;20049;-69
2023/07/01 05:45:29;;;;;;;7.00;4.90;;;16.50;99.90;;;;;;4996808;28;20124;-69
2023/07/01 05:47:55;;;;;;;7.55;4.80;;;16.60;99.90;;;;;;4997519;28;20049;-69
2023/07/01 05:50:21;;;;;;;7.07;4.63;;;16.60;99.90;;;;;;5015259;28;20061;-69
2023/07/01 05:52:47;;;;;;;8.77;4.57;;;16.50;99.90;;;;;;4996467;28;20046;-69
2023/07/01 05:55:12;;;;;;;6.20;3.58;;;16.60;99.90;;;;;;4997461;28;20042;-70
2023/07/01 05:57:38;;;;;;;6.80;4.70;;;16.60;99.90;;;;;;4997139;28;20048;-69
2023/07/01 06:00:05;;;;;;;6.20;4.28;;;16.70;99.90;;;;;;4997190;28;20483;-69
2023/07/01 06:02:31;;;;;;;6.43;3.50;;;16.70;99.90;;;;;;4997671;28;20046;-69
2023/07/01 06:04:56;;;;;;;6.18;4.13;;;16.70;99.90;;;;;;4996514;28;20050;-70
2023/07/01 06:07:22;;;;;;;6.85;4.38;;;16.70;99.90;;;;;;5014814;28;20077;-69
2023/07/01 06:09:49;;;;;;;6.45;4.30;;;16.60;99.90;;;;;;5014778;28;20045;-70
2023/07/01 06:12:15;;;;;;;7.00;4.18;;;16.70;99.90;;;;;;5014103;28;20084;-69
2023/07/01 06:14:41;;;;;;;5.60;3.80;;;16.70;99.90;;;;;;4996929;28;20068;-69
2023/07/01 06:17:09;;;;;;;6.38;3.80;;;16.70;99.90;;;;;;4997390;28;20049;-70
2023/07/01 06:19:35;;;;;;;5.78;3.70;;;16.80;99.90;;;;;;5013833;28;20042;-70
2023/07/01 06:22:00;;;;;;;5.70;3.55;;;16.80;99.90;;;;;;4996547;28;20041;-70
2023/07/01 06:24:26;;;;;;;6.15;3.45;;;16.80;99.90;;;;;;4996992;28;20069;-70
2023/07/01 06:26:52;;;;;;;7.85;3.55;;;16.80;99.90;;;;;;4979953;28;20097;-69
2023/07/01 06:29:17;;;;;;;6.07;2.97;;;16.80;99.90;;;;;;4996883;28;20034;-70
2023/07/01 06:31:43;;;;;;;4.80;3.10;;;16.80;99.90;;;;;;4980652;28;20037;-69
2023/07/01 06:34:15;;;;;;;5.95;3.17;;;16.80;99.90;;;;;;5013659;28;20128;-69
2023/07/01 06:36:41;;;;;;;4.63;2.80;;;16.80;99.90;;;;;;4996794;28;20478;-69
2023/07/01 06:39:07;;;;;;;5.78;3.08;;;16.80;99.90;;;;;;4996801;28;20041;-69
2023/07/01 06:41:33;;;;;;;6.00;3.20;;;16.80;99.90;;;;;;4995761;28;20049;-69
2023/07/01 06:43:59;;;;;;;4.05;2.38;;;16.90;99.90;;;;;;4996004;28;20045;-69
2023/07/01 06:46:26;;;;;;;5.88;3.10;;;16.80;99.90;;;;;;5014097;28;20034;-70
2023/07/01 06:48:51;;;;;;;5.63;3.03;;;16.90;99.90;;;;;;5013301;28;20372;-69
2023/07/01 06:51:17;;;;;;;4.28;2.65;;;16.90;99.90;;;;;;4996470;28;20053;-73
2023/07/01 06:53:43;;;;;;;4.82;2.45;;;17.00;99.90;;;;;;4996333;28;20052;-71
2023/07/01 06:56:10;;;;;;;4.15;2.28;;;17.00;99.90;;;;;;5013231;28;20046;-68
2023/07/01 06:58:36;;;;;;;4.50;2.30;;;17.00;99.90;;;;;;4992065;28;20058;-69
2023/07/01 07:01:02;;;;;;;4.93;2.13;;;17.10;99.90;;;;;;5009557;28;20066;-67
2023/07/01 07:03:28;;;;;;;3.60;1.85;;;17.10;99.90;;;;;;4977167;28;20057;-67
2023/07/01 07:05:55;;;;;;;5.80;1.73;;;17.10;99.90;;;;;;4993351;28;20487;-67
2023/07/01 07:08:21;;;;;;;4.28;1.70;;;17.20;99.90;;;;;;4992704;28;20042;-68
2023/07/01 07:10:47;;;;;;;4.65;1.95;;;17.20;99.90;;;;;;4989405;28;20545;-70
2023/07/01 07:13:13;;;;;;;4.03;1.90;;;17.20;99.90;;;;;;5006806;28;20042;-67
2023/07/01 07:15:40;;;;;;;3.25;1.60;;;17.20;99.90;;;;;;5002393;28;20467;-68
2023/07/01 07:18:10;;;;;;;3.70;1.70;;;17.30;99.90;;;;;;5009717;28;20046;-67
2023/07/01 07:20:37;;;;;;;3.53;1.48;;;17.30;99.90;;;;;;4991928;28;20057;-69
2023/07/01 07:23:05;;;;;;;5.00;1.60;;;17.30;99.90;;;;;;5001430;28;20064;-69
2023/07/01 07:25:32;;;;;;;4.60;1.70;;;17.30;99.90;;;;;;4992398;28;20073;-70
2023/07/01 07:27:58;;;;;;;3.53;1.60;;;17.40;99.90;;;;;;5010202;28;20045;-67
2023/07/01 07:30:24;;;;;;;3.40;1.60;;;17.40;99.90;;;;;;4991778;28;20038;-67
2023/07/01 07:32:49;;;;;;;3.95;1.50;;;17.30;99.90;;;;;;5008591;28;20406;-67
2023/07/01 07:35:15;;;;;;;3.40;1.55;;;17.30;99.90;;;;;;4992528;28;20049;-68
2023/07/01 07:37:41;;;;;;;4.18;1.55;;;17.40;99.90;;;;;;5008397;28;20077;-67
2023/07/01 07:40:08;;;;;;;3.03;1.42;;;17.40;99.90;;;;;;5004282;28;20074;-68
2023/07/01 07:42:35;;;;;;;3.55;1.48;;;17.40;99.90;;;;;;5007839;28;20042;-68
2023/07/01 07:45:02;;;;;;;3.28;1.50;;;17.40;99.90;;;;;;5009372;28;20403;-69
2023/07/01 07:47:28;;;;;;;3.35;1.58;;;17.30;99.90;;;;;;5008971;28;20053;-69
2023/07/01 07:49:54;;;;;;;3.22;1.50;;;17.50;99.90;;;;;;4995027;28;20135;-68
2023/07/01 07:52:19;;;;;;;3.30;1.50;;;17.50;99.90;;;;;;4994883;28;20124;-68
2023/07/01 07:54:46;;;;;;;2.65;1.20;;;17.40;99.90;;;;;;5010754;28;20038;-68
2023/07/01 07:57:13;;;;;;;1.80;1.00;;;17.40;99.90;;;;;;4996235;28;20569;-69
2023/07/01 07:59:43;;;;;;;2.90;1.35;;;17.50;99.90;;;;;;4991698;28;20045;-66
2023/07/01 08:02:09;;;;;;;2.70;1.17;;;17.50;99.90;;;;;;4977056;28;20050;-67
2023/07/01 08:04:36;;;;;;;2.60;1.23;;;17.50;99.90;;;;;;4955824;28;20049;-67
2023/07/01 08:07:02;;;;;;;3.05;1.33;;;17.40;99.90;;;;;;4994575;28;20038;-68
2023/07/01 08:09:28;;;;;;;2.80;1.20;;;17.50;99.90;;;;;;5009316;28;20353;-66
2023/07/01 08:11:58;;;;;;;3.90;1.15;;;17.50;99.90;;;;;;4977444;28;20041;-67
2023/07/01 08:14:25;;;;;;;2.80;1.20;;;17.70;99.90;;;;;;5009163;28;20050;-66
2023/07/01 08:16:51;;;;;;;2.08;1.00;;;17.60;99.90;;;;;;4985348;28;20042;-68
2023/07/01 08:19:16;;;;;;;2.90;1.20;;;17.60;99.90;;;;;;4987747;28;20137;-66
2023/07/01 08:21:42;;;;;;;2.55;1.20;;;17.70;99.90;;;;;;4991867;28;20102;-66
2023/07/01 08:24:08;;;;;;;2.83;1.27;;;17.60;99.90;;;;;;4991730;28;20045;-67
2023/07/01 08:26:34;;;;;;;2.47;0.98;;;17.70;99.90;;;;;;4991565;28;20041;-70
2023/07/01 08:28:59;;;;;;;3.65;1.00;;;17.70;99.90;;;;;;4992629;28;20103;-68
2023/07/01 08:31:31;;;;;;;2.30;0.95;;;17.60;99.90;;;;;;4992605;28;20049;-69
2023/07/01 08:33:57;;;;;;;2.83;1.10;;;17.50;99.90;;;;;;4975215;28;20045;-66
2023/07/01 08:36:23;;;;;;;3.28;1.00;;;17.60;99.90;;;;;;4992738;28;20041;-68
2023/07/01 08:38:49;;;;;;;3.63;1.23;;;17.60;99.90;;;;;;4975979;28;20540;-68
2023/07/01 08:41:16;;;;;;;3.05;1.13;;;17.60;99.90;;;;;;5009606;28;20057;-71
2023/07/01 08:43:45;;;;;;;4.05;1.40;;;17.60;99.90;;;;;;4992173;28;20045;-72
2023/07/01 08:46:14;;;;;;;3.22;1.45;;;17.50;99.90;;;;;;4986474;28;20054;-70
2023/07/01 08:48:41;;;;;;;3.65;1.60;;;17.70;99.90;;;;;;4986032;28;20049;-71
2023/07/01 08:51:27;;;;;;;3.35;1.77;;;17.70;99.90;;;;;;4983433;28;20037;-68
2023/07/01 08:53:53;;;;;;;3.72;1.73;;;17.70;99.90;;;;;;4989291;28;20111;-69
2023/07/01 08:56:20;;;;;;;5.13;2.22;;;17.70;99.90;;;;;;5007937;28;20046;-67
2023/07/01 08:58:49;;;;;;;4.32;2.05;;;17.70;99.90;;;;;;4982643;28;20112;-67
2023/07/01 09:01:16;;;;;;;5.53;2.47;;;17.80;99.90;;;;;;4990038;28;20046;-66
2023/07/01 09:03:43;;;;;;;5.45;3.20;;;17.80;99.90;;;;;;4969299;28;20054;-66
2023/07/01 09:06:09;;;;;;;4.72;2.70;;;17.80;99.90;;;;;;5005698;28;20041;-67
2023/07/01 09:08:38;;;;;;;5.18;2.90;;;17.80;99.90;;;;;;4990632;28;20038;-66
2023/07/01 09:11:11;;;;;;;5.70;3.30;;;17.80;99.90;;;;;;4991581;28;20117;-67
2023/07/01 09:13:36;;;;;;;5.70;2.97;;;17.90;99.90;;;;;;4991209;28;20038;-66
2023/07/01 09:16:02;;;;;;;6.35;3.95;;;17.90;99.90;;;;;;4988635;28;20119;-66
2023/07/01 09:18:29;;;;;;;7.57;4.45;;;17.90;99.90;;;;;;4977967;28;20046;-66
2023/07/01 09:20:56;;;;;;;7.32;4.93;;;17.90;99.90;;;;;;4976821;28;20117;-66
2023/07/01 09:23:26;;;;;;;8.45;4.65;;;17.90;99.90;;;;;;4987341;28;20029;-66
2023/07/01 09:25:52;;;;;;;9.27;5.38;;;18.00;99.90;;;;;;5000530;28;20045;-66
2023/07/01 09:28:30;;;;;;;9.05;5.57;;;18.00;99.90;;;;;;4990439;28;20084;-68
2023/07/01 09:31:01;;;;;;;8.18;5.70;;;18.10;99.90;;;;;;4987950;28;20065;-66
2023/07/01 09:33:27;;;;;;;8.35;5.72;;;18.20;99.90;;;;;;5008904;28;20037;-66
2023/07/01 09:35:57;;;;;;;10.10;5.95;;;18.30;99.90;;;;;;5001470;28;20062;-66
2023/07/01 09:38:26;;;;;;;9.68;6.13;;;18.40;99.90;;;;;;4975991;28;20042;-66
2023/07/01 09:40:52;;;;;;;9.38;5.97;;;18.40;99.90;;;;;;5008624;28;20033;-66
2023/07/01 09:43:19;;;;;;;12.40;7.20;;;18.30;99.90;;;;;;4974652;28;20109;-66
2023/07/01 09:45:55;;;;;;;10.65;7.80;;;18.40;99.90;;;;;;4990871;28;20368;-66
2023/07/01 09:48:21;;;;;;;8.93;6.75;;;18.40;99.90;;;;;;5009259;28;20387;-68
2023/07/01 09:50:49;;;;;;;11.07;6.50;;;18.50;99.90;;;;;;5002190;28;20077;-66
2023/07/01 09:53:22;;;;;;;10.00;7.90;;;18.50;99.90;;;;;;5009157;28;20042;-66
2023/07/01 09:55:48;;;;;;;12.60;7.07;;;18.50;99.90;;;;;;4991708;28;20046;-67
2023/07/01 09:58:15;;;;;;;10.57;6.50;;;18.40;99.90;;;;;;4992596;28;20042;-66
2023/07/01 10:00:42;;;;;;;12.10;7.55;;;18.40;99.90;;;;;;5008916;28;20112;-67
2023/07/01 10:03:08;;;;;;;9.05;6.60;;;18.50;99.90;;;;;;4973295;28;20057;-66
2023/07/01 10:05:34;;;;;;;10.00;7.82;;;18.50;99.90;;;;;;4990836;28;20487;-66
2023/07/01 10:08:00;;;;;;;11.15;7.53;;;18.60;99.90;;;;;;4991631;28;20049;-67
2023/07/01 10:10:26;;;;;;;8.63;6.35;;;18.60;99.90;;;;;;4986307;28;20057;-66
2023/07/01 10:12:54;;;;;;;9.77;6.82;;;18.60;99.90;;;;;;4993951;28;20033;-66
2023/07/01 10:15:30;;;;;;;10.52;7.15;;;18.70;99.90;;;;;;4992595;28;20533;-66
2023/07/01 10:17:57;;;;;;;10.02;7.10;;;18.70;99.90;;;;;;5010782;28;20391;-67
2023/07/01 10:20:34;;;;;;;8.60;6.40;;;18.80;99.90;;;;;;5003910;28;20042;-67
2023/07/01 10:23:01;;;;;;;13.15;7.93;;;18.80;99.90;;;;;;4977914;28;20041;-67
2023/07/01 10:25:37;;;;;;;11.57;7.63;;;18.80;99.90;;;;;;4975799;28;20037;-66
2023/07/01 10:28:08;;;;;;;10.07;7.82;;;18.80;99.90;;;;;;4978233;28;20570;-67
2023/07/01 10:30:46;;;;;;;10.43;7.40;;;18.70;99.90;;;;;;4994933;28;20064;-67
2023/07/01 10:33:31;;;;;;;9.68;6.32;;;18.60;99.90;;;;;;5011836;28;20042;-67
2023/07/01 10:36:04;;;;;;;9.32;6.78;;;18.60;99.90;;;;;;4994864;28;20041;-67
2023/07/01 10:38:30;;;;;;;11.05;5.72;;;18.60;99.90;;;;;;4994067;28;20037;-65
2023/07/01 10:40:57;;;;;;;10.52;6.80;;;18.60;99.90;;;;;;4987989;28;20042;-70
2023/07/01 10:43:43;;;;;;;10.10;6.03;;;18.60;99.90;;;;;;4993522;28;20045;-70
2023/07/01 10:46:19;;;;;;;9.40;5.35;;;18.60;99.90;;;;;;4993014;28;20073;-70
2023/07/01 10:49:03;;;;;;;8.02;5.13;;;18.60;99.90;;;;;;4993873;28;20058;-71
2023/07/01 10:51:33;;;;;;;11.32;5.07;;;18.60;99.90;;;;;;5011635;28;20077;-64
2023/07/01 10:54:02;;;;;;;9.88;5.45;;;18.60;99.90;;;;;;4993262;28;20046;-65
2023/07/01 10:56:29;;;;;;;9.20;4.75;;;18.60;99.90;;;;;;4977683;28;20077;-65
2023/07/01 10:59:16;;;;;;;8.82;5.45;;;18.60;99.90;;;;;;4993434;28;20046;-65
2023/07/01 11:01:44;;;;;;;10.07;4.93;;;18.70;99.90;;;;;;4995403;28;20058;-66
2023/07/01 11:04:10;;;;;;;10.15;5.57;;;18.60;99.90;;;;;;4974175;28;20050;-67
2023/07/01 11:06:46;;;;;;;8.18;4.95;;;18.60;99.90;;;;;;4977221;28;20045;-68
2023/07/01 11:09:13;;;;;;;9.57;4.90;;;18.60;99.90;;;;;;4992979;28;20046;-69
2023/07/01 11:11:38;;;;;;;7.90;4.90;;;18.60;99.90;;;;;;5011094;28;20420;-68
2023/07/01 11:14:06;;;;;;;6.70;4.55;;;18.60;99.90;;;;;;5010725;28;20128;-69
2023/07/01 11:16:33;;;;;;;9.13;5.20;;;18.70;99.90;;;;;;4991679;28;20144;-68
2023/07/01 11:19:02;;;;;;;6.22;4.35;;;18.80;99.90;;;;;;4993255;28;20044;-67
2023/07/01 11:21:29;;;;;;;8.00;4.82;;;19.00;99.90;;;;;;4979635;28;20081;-67
2023/07/01 11:23:58;;;;;;;7.25;5.18;;;19.10;99.90;;;;;;4993172;28;20057;-68
2023/07/01 11:26:26;;;;;;;7.65;4.88;;;19.20;99.90;;;;;;4999234;28;20081;-68
2023/07/01 11:28:55;;;;;;;7.95;5.47;;;19.10;99.90;;;;;;4988172;28;20495;-67
2023/07/01 11:31:30;;;;;;;8.13;5.47;;;19.10;99.90;;;;;;5010155;28;20049;-68
2023/07/01 11:33:56;;;;;;;9.85;4.95;;;19.10;99.90;;;;;;4975683;28;20078;-65
2023/07/01 11:36:36;;;;;;;8.98;4.63;;;19.10;99.90;;;;;;4973023;28;20042;-66
2023/07/01 11:39:08;;;;;;;7.85;4.10;;;18.90;99.90;;;;;;4974048;28;20546;-67
2023/07/01 11:41:35;;;;;;;10.02;4.40;;;18.80;99.90;;;;;;4971575;28;20387;-66
2023/07/01 11:44:03;;;;;;;7.88;4.20;;;18.80;99.90;;;;;;5010429;28;20042;-65
2023/07/01 11:46:33;;;;;;;6.47;3.20;;;18.90;99.90;;;;;;4993286;28;20041;-65
2023/07/01 11:49:29;;;;;;;8.63;3.35;;;19.10;99.90;;;;;;4993638;28;20403;-69
2023/07/01 11:52:00;;;;;;;7.82;3.35;;;19.20;99.90;;;;;;4993211;28;20042;-68
2023/07/01 11:54:47;;;;;;;6.05;3.63;;;19.20;99.90;;;;;;5011212;28;20046;-67
2023/07/01 11:57:17;;;;;;;6.63;3.55;;;19.20;99.90;;;;;;4992348;28;20053;-65
2023/07/01 11:59:45;;;;;;;9.57;3.97;;;19.10;99.90;;;;;;5019378;28;20114;-70
2023/07/01 12:02:11;;;;;;;6.35;3.80;;;19.00;99.90;;;;;;5011792;28;20049;-66
2023/07/01 12:04:37;;;;;;;6.72;3.90;;;19.10;99.90;;;;;;4992220;28;20364;-66
2023/07/01 12:07:06;;;;;;;6.43;3.63;;;19.20;99.90;;;;;;4993171;28;20045;-69
2023/07/01 12:09:32;;;;;;;8.52;4.40;;;19.40;99.90;;;;;;4992976;28;20062;-69
2023/07/01 12:11:58;;;;;;;8.02;3.65;;;19.70;99.90;;;;;;5010119;28;20077;-70
2023/07/01 12:14:25;;;;;;;7.38;3.58;;;19.80;99.90;;;;;;4993431;28;20376;-70
2023/07/01 12:16:51;;;;;;;5.38;3.08;;;19.80;99.90;;;;;;4991331;28;20508;-62
2023/07/01 12:19:19;;;;;;;3.92;2.33;;;19.70;99.90;;;;;;4991444;28;20188;-66
2023/07/01 12:21:45;;;;;;;6.22;2.30;;;19.70;99.90;;;;;;5010174;28;20112;-62
2023/07/01 12:24:20;;;;;;;4.72;2.55;;;19.70;99.90;;;;;;4991204;28;20523;-63
2023/07/01 12:26:48;;;;;;;5.43;2.95;;;19.80;99.90;;;;;;4980001;28;20046;-62
2023/07/01 12:29:14;;;;;;;8.88;2.90;;;19.70;99.90;;;;;;5005483;28;20045;-62
2023/07/01 12:31:40;;;;;;;7.38;3.13;;;19.60;99.90;;;;;;5008791;28;20050;-64
2023/07/01 12:34:06;;;;;;;9.35;3.78;;;19.40;99.90;;;;;;5009799;28;20403;-65
2023/07/01 12:36:32;;;;;;;7.35;3.13;;;19.40;99.90;;;;;;4992743;28;20037;-64
2023/07/01 12:39:02;;;;;;;8.30;3.45;;;19.30;99.90;;;;;;5008797;28;20092;-64
2023/07/01 12:41:29;;;;;;;5.70;2.25;;;19.20;99.90;;;;;;5009967;28;20079;-65
2023/07/01 12:43:55;;;;;;;5.43;2.25;;;19.30;99.90;;;;;;4975790;28;20093;-63
2023/07/01 12:46:21;;;;;;;4.47;2.17;;;19.40;99.90;;;;;;5009313;28;20490;-64